createdAt,value
2018-08-24T00:01:52.223Z,23.00
2018-08-24T00:04:20.800Z,23.00
2018-08-24T00:06:49.272Z,23.00
2018-08-24T00:09:21.930Z,22.90
2018-08-24T00:11:50.545Z,23.00
2018-08-24T00:14:18.918Z,22.90
2018-08-24T00:16:47.378Z,22.90
2018-08-24T00:19:16.625Z,22.90
2018-08-24T00:21:45.740Z,22.90
2018-08-24T00:24:14.731Z,22.90
2018-08-24T00:26:43.248Z,22.80
2018-08-24T00:29:11.877Z,22.90
2018-08-24T00:31:40.692Z,22.90
2018-08-24T00:34:09.333Z,22.80
2018-08-24T00:36:37.739Z,22.80
2018-08-24T00:39:08.168Z,22.70
2018-08-24T00:41:36.963Z,22.70
2018-08-24T00:44:05.411Z,22.70
2018-08-24T00:46:33.920Z,22.80
2018-08-24T00:49:02.481Z,22.80
2018-08-24T00:51:30.877Z,22.80
2018-08-24T00:53:59.299Z,22.70
2018-08-24T00:56:27.722Z,22.70
2018-08-24T00:59:02.877Z,22.70
2018-08-24T01:01:31.347Z,22.70
2018-08-24T01:03:59.805Z,22.60
2018-08-24T01:06:28.270Z,22.60
2018-08-24T01:08:57.117Z,22.60
2018-08-24T01:11:30.995Z,22.50
2018-08-24T01:13:59.375Z,22.50
2018-08-24T01:16:33.267Z,22.50
2018-08-24T01:19:01.801Z,22.50
2018-08-24T01:21:30.282Z,22.30
2018-08-24T01:23:58.727Z,22.30
2018-08-24T01:26:27.327Z,22.40
2018-08-24T01:28:55.904Z,22.30
2018-08-24T01:31:24.337Z,22.30
2018-08-24T01:33:52.872Z,22.30
2018-08-24T01:36:21.359Z,22.20
2018-08-24T01:38:50.035Z,22.30
2018-08-24T01:41:18.481Z,22.30
2018-08-24T01:43:46.833Z,22.30
2018-08-24T01:46:16.059Z,22.20
2018-08-24T01:48:44.446Z,22.20
2018-08-24T01:51:13.068Z,22.20
2018-08-24T01:53:41.544Z,22.20
2018-08-24T01:56:09.957Z,22.20
2018-08-24T01:58:38.372Z,22.20
2018-08-24T02:01:06.884Z,22.20
2018-08-24T02:03:35.276Z,22.30
2018-08-24T02:06:06.299Z,22.20
2018-08-24T02:08:35.830Z,22.20
2018-08-24T02:11:08.693Z,22.30
2018-08-24T02:13:42.730Z,22.30
2018-08-24T02:16:11.173Z,22.20
2018-08-24T02:18:45.025Z,22.20
2018-08-24T02:21:18.939Z,22.30
2018-08-24T02:23:47.486Z,22.20
2018-08-24T02:26:15.943Z,22.20
2018-08-24T02:28:44.439Z,22.10
2018-08-24T02:31:12.950Z,22.20
2018-08-24T02:33:41.362Z,22.20
2018-08-24T02:36:10.746Z,22.30
2018-08-24T02:38:39.907Z,22.20
2018-08-24T02:41:08.366Z,22.20
2018-08-24T02:43:36.757Z,22.10
2018-08-24T02:46:05.295Z,22.10
2018-08-24T02:48:33.707Z,22.10
2018-08-24T02:51:02.132Z,22.10
2018-08-24T02:53:30.532Z,22.00
2018-08-24T02:55:59.035Z,22.00
2018-08-24T02:58:27.562Z,22.10
2018-08-24T03:00:55.987Z,22.10
2018-08-24T03:03:24.350Z,22.00
2018-08-24T03:05:52.694Z,21.90
2018-08-24T03:08:21.161Z,22.00
2018-08-24T03:10:49.565Z,22.00
2018-08-24T03:13:17.963Z,22.00
2018-08-24T03:15:46.377Z,22.00
2018-08-24T03:18:14.837Z,22.00
2018-08-24T03:20:43.266Z,22.10
2018-08-24T03:23:11.634Z,22.10
2018-08-24T03:25:40.099Z,22.10
2018-08-24T03:28:08.494Z,22.00
2018-08-24T03:30:36.958Z,21.90
2018-08-24T03:33:05.480Z,21.80
2018-08-24T03:35:33.854Z,21.90
2018-08-24T03:38:02.314Z,21.90
2018-08-24T03:40:30.689Z,21.90
2018-08-24T03:42:59.104Z,22.00
2018-08-24T03:45:27.554Z,22.10
2018-08-24T03:47:55.941Z,22.00
2018-08-24T03:50:24.460Z,22.00
2018-08-24T03:52:53.147Z,21.90
2018-08-24T03:55:21.641Z,22.00
2018-08-24T03:57:50.048Z,22.00
2018-08-24T04:00:18.682Z,22.00
2018-08-24T04:02:47.639Z,22.00
2018-08-24T04:05:17.114Z,22.00
2018-08-24T04:07:45.679Z,21.90
2018-08-24T04:10:14.094Z,21.90
2018-08-24T04:12:42.601Z,21.80
2018-08-24T04:15:11.064Z,22.00
2018-08-24T04:17:42.040Z,22.00
2018-08-24T04:20:10.466Z,22.00
2018-08-24T04:22:39.112Z,22.00
2018-08-24T04:25:07.928Z,22.00
2018-08-24T04:27:36.398Z,22.00
2018-08-24T04:30:05.099Z,22.10
2018-08-24T04:32:33.960Z,22.10
2018-08-24T04:35:02.761Z,22.10
2018-08-24T04:37:31.219Z,22.10
2018-08-24T04:39:59.645Z,22.10
2018-08-24T04:42:28.221Z,22.10
2018-08-24T04:44:56.684Z,22.20
2018-08-24T04:47:25.260Z,22.20
2018-08-24T04:49:54.561Z,22.20
2018-08-24T04:52:23.427Z,22.20
2018-08-24T04:54:52.076Z,22.20
2018-08-24T04:57:20.514Z,22.20
2018-08-24T04:59:48.931Z,22.30
2018-08-24T05:02:17.346Z,22.30
2018-08-24T05:04:45.733Z,22.30
2018-08-24T05:07:14.131Z,22.30
2018-08-24T05:09:42.722Z,22.30
2018-08-24T05:12:11.099Z,22.30
2018-08-24T05:14:39.608Z,22.20
2018-08-24T05:17:08.051Z,22.30
2018-08-24T05:19:36.433Z,22.20
2018-08-24T05:22:04.885Z,22.30
2018-08-24T05:24:33.355Z,22.30
2018-08-24T05:27:01.915Z,22.30
2018-08-24T05:29:30.719Z,22.30
2018-08-24T05:31:59.227Z,22.40
2018-08-24T05:34:27.640Z,22.30
2018-08-24T05:36:56.138Z,22.40
2018-08-24T05:39:24.732Z,22.40
2018-08-24T05:41:53.093Z,22.40
2018-08-24T05:44:21.521Z,22.40
2018-08-24T05:46:49.908Z,22.50
2018-08-24T05:49:18.338Z,22.50
2018-08-24T05:51:46.743Z,22.60
2018-08-24T05:54:15.216Z,22.80
2018-08-24T05:56:43.607Z,22.90
2018-08-24T05:59:12.297Z,22.90
2018-08-24T06:01:40.719Z,23.00
2018-08-24T06:04:09.073Z,23.00
2018-08-24T06:06:37.466Z,23.00
2018-08-24T06:09:14.175Z,23.00
2018-08-24T06:11:43.366Z,23.00
2018-08-24T06:14:12.844Z,23.00
2018-08-24T06:17:44.450Z,23.00
2018-08-24T06:20:12.935Z,23.00
2018-08-24T06:22:41.364Z,23.10
2018-08-24T06:25:10.068Z,23.20
2018-08-24T06:27:38.668Z,23.20
2018-08-24T06:30:07.419Z,23.10
2018-08-24T06:32:35.823Z,23.10
2018-08-24T06:35:04.249Z,23.10
2018-08-24T06:37:32.847Z,23.00
2018-08-24T06:40:01.218Z,22.90
2018-08-24T06:42:29.658Z,23.00
2018-08-24T06:44:58.140Z,23.00
2018-08-24T06:47:26.642Z,23.20
2018-08-24T06:49:55.072Z,23.20
2018-08-24T06:52:23.498Z,23.40
2018-08-24T06:54:51.943Z,23.60
2018-08-24T06:57:20.410Z,23.90
2018-08-24T06:59:49.073Z,23.90
2018-08-24T07:02:17.622Z,23.90
2018-08-24T07:04:46.025Z,24.00
2018-08-24T07:07:14.428Z,24.10
2018-08-24T07:09:43.767Z,24.20
2018-08-24T07:12:13.445Z,24.30
2018-08-24T07:14:42.750Z,24.20
2018-08-24T07:17:11.146Z,24.10
2018-08-24T07:19:39.678Z,24.10
2018-08-24T07:22:08.475Z,24.00
2018-08-24T07:24:36.920Z,24.20
2018-08-24T07:27:05.331Z,24.30
2018-08-24T07:29:33.711Z,24.60
2018-08-24T07:32:02.295Z,24.60
2018-08-24T07:34:30.661Z,24.40
2018-08-24T07:36:59.226Z,24.30
2018-08-24T07:39:27.737Z,24.30
2018-08-24T07:41:56.197Z,24.30
2018-08-24T07:44:24.591Z,24.10
2018-08-24T07:46:53.071Z,24.10
2018-08-24T07:49:21.638Z,24.10
2018-08-24T07:51:50.108Z,24.00
2018-08-24T07:54:18.755Z,23.80
2018-08-24T07:56:47.150Z,23.90
2018-08-24T07:59:15.546Z,23.90
2018-08-24T08:01:44.038Z,24.00
2018-08-24T08:04:12.627Z,24.10
2018-08-24T08:06:41.031Z,24.20
2018-08-24T08:09:09.442Z,24.30
2018-08-24T08:11:40.944Z,24.30
2018-08-24T08:14:09.895Z,24.40
2018-08-24T08:16:38.293Z,24.30
2018-08-24T08:19:06.894Z,24.20
2018-08-24T08:21:35.375Z,24.20
2018-08-24T08:24:03.821Z,24.10
2018-08-24T08:26:32.241Z,24.20
2018-08-24T08:29:00.719Z,24.20
2018-08-24T08:31:29.237Z,24.20
2018-08-24T08:33:57.698Z,24.30
2018-08-24T08:36:26.373Z,24.20
2018-08-24T08:38:55.032Z,24.40
2018-08-24T08:41:23.471Z,24.40
2018-08-24T08:43:52.016Z,24.50
2018-08-24T08:46:20.434Z,24.40
2018-08-24T08:48:48.986Z,24.50
2018-08-24T08:51:17.493Z,24.60
2018-08-24T08:53:45.961Z,24.50
2018-08-24T08:56:14.561Z,24.60
2018-08-24T08:58:43.136Z,24.50
2018-08-24T09:01:11.627Z,24.50
2018-08-24T09:03:40.082Z,24.40
2018-08-24T09:06:08.579Z,24.30
2018-08-24T09:08:37.007Z,24.00
2018-08-24T09:11:05.466Z,23.80
2018-08-24T09:13:34.067Z,24.00
2018-08-24T09:16:02.661Z,24.20
2018-08-24T09:18:36.444Z,24.20
2018-08-24T09:21:10.360Z,24.00
2018-08-24T09:23:44.193Z,23.80
2018-08-24T09:26:18.044Z,24.10
2018-08-24T09:28:47.207Z,24.40
2018-08-24T09:31:18.915Z,24.40
2018-08-24T09:33:47.639Z,24.40
2018-08-24T09:36:19.528Z,23.50
2018-08-24T09:38:48.703Z,24.60
2018-08-24T09:41:17.103Z,24.70
2018-08-24T09:43:50.897Z,24.90
2018-08-24T09:46:19.494Z,24.80
2018-08-24T09:48:53.356Z,24.90
2018-08-24T09:51:27.078Z,25.10
2018-08-24T09:54:00.748Z,25.00
2018-08-24T09:56:30.337Z,25.10
2018-08-24T09:58:59.303Z,25.10
2018-08-24T10:01:33.121Z,25.30
2018-08-24T10:04:06.952Z,25.50
2018-08-24T10:06:40.864Z,25.50
2018-08-24T10:09:10.578Z,25.60
2018-08-24T10:11:38.980Z,25.70
2018-08-24T10:14:07.779Z,25.40
2018-08-24T10:16:36.306Z,25.30
2018-08-24T10:19:04.737Z,25.20
2018-08-24T10:21:33.111Z,25.30
2018-08-24T10:24:01.679Z,25.30
2018-08-24T10:26:30.101Z,25.50
2018-08-24T10:28:58.601Z,25.70
2018-08-24T10:31:27.022Z,25.80
2018-08-24T10:33:55.550Z,25.80
2018-08-24T10:36:23.964Z,25.80
2018-08-24T10:38:52.491Z,25.60
2018-08-24T10:41:20.933Z,25.60
2018-08-24T10:43:49.353Z,25.60
2018-08-24T10:46:17.977Z,25.40
2018-08-24T10:48:46.559Z,25.50
2018-08-24T10:51:15.009Z,25.60
2018-08-24T10:53:43.464Z,25.80
2018-08-24T10:56:11.981Z,25.90
2018-08-24T10:58:40.593Z,26.00
2018-08-24T11:01:09.276Z,26.10
2018-08-24T11:03:37.763Z,26.10
2018-08-24T11:06:06.291Z,26.00
2018-08-24T11:08:34.835Z,25.90
2018-08-24T11:11:03.254Z,25.90
2018-08-24T11:13:31.713Z,25.90
2018-08-24T11:16:00.217Z,26.00
2018-08-24T11:18:28.675Z,25.90
2018-08-24T11:20:58.432Z,26.00
2018-08-24T11:23:27.144Z,26.10
2018-08-24T11:25:55.609Z,25.90
2018-08-24T11:28:23.981Z,25.90
2018-08-24T11:30:52.369Z,26.00
2018-08-24T11:33:20.898Z,26.10
2018-08-24T11:35:49.417Z,26.20
2018-08-24T11:38:18.035Z,26.10
2018-08-24T11:40:46.455Z,25.90
2018-08-24T11:43:14.871Z,25.90
2018-08-24T11:45:43.480Z,25.80
2018-08-24T11:48:11.872Z,25.90
2018-08-24T11:50:40.289Z,25.90
2018-08-24T11:53:08.663Z,26.00
2018-08-24T11:55:37.200Z,26.20
2018-08-24T11:58:05.626Z,26.30
2018-08-24T12:00:34.789Z,26.20
2018-08-24T12:03:03.878Z,26.10
2018-08-24T12:05:32.587Z,26.30
2018-08-24T12:08:01.078Z,26.30
2018-08-24T12:10:29.410Z,26.40
2018-08-24T12:12:58.322Z,26.40
2018-08-24T12:15:26.731Z,26.00
2018-08-24T12:17:55.573Z,25.80
2018-08-24T12:20:23.976Z,25.70
2018-08-24T12:22:52.366Z,25.60
2018-08-24T12:25:20.838Z,25.80
2018-08-24T12:27:49.239Z,25.90
2018-08-24T12:30:17.663Z,25.90
2018-08-24T12:32:46.178Z,26.10
2018-08-24T12:35:14.624Z,26.10
2018-08-24T12:37:47.057Z,25.90
2018-08-24T12:40:16.248Z,25.90
2018-08-24T12:42:46.686Z,25.90
2018-08-24T12:45:15.050Z,25.90
2018-08-24T12:47:43.509Z,25.90
2018-08-24T12:50:11.910Z,25.80
2018-08-24T12:52:40.317Z,25.90
2018-08-24T12:55:08.706Z,26.10
2018-08-24T12:57:37.136Z,26.20
2018-08-24T13:00:05.757Z,26.30
2018-08-24T13:02:34.207Z,26.40
2018-08-24T13:05:04.215Z,26.20
2018-08-24T13:07:32.698Z,26.20
2018-08-24T13:10:01.144Z,26.30
2018-08-24T13:12:29.661Z,26.30
2018-08-24T13:14:58.185Z,26.10
2018-08-24T13:17:26.646Z,26.00
2018-08-24T13:19:55.012Z,26.10
2018-08-24T13:22:23.579Z,26.10
2018-08-24T13:24:52.090Z,26.10
2018-08-24T13:27:20.509Z,26.10
2018-08-24T13:29:48.963Z,25.80
2018-08-24T13:32:17.415Z,25.90
2018-08-24T13:34:45.812Z,25.90
2018-08-24T13:37:14.213Z,25.90
2018-08-24T13:39:42.726Z,25.90
2018-08-24T13:42:11.222Z,25.80
2018-08-24T13:44:39.604Z,25.60
2018-08-24T13:47:08.018Z,25.70
2018-08-24T13:49:36.574Z,25.80
2018-08-24T13:52:05.120Z,25.50
2018-08-24T13:54:33.541Z,25.60
2018-08-24T13:57:02.023Z,25.70
2018-08-24T13:59:30.451Z,25.80
2018-08-24T14:01:58.986Z,25.80
2018-08-24T14:04:27.582Z,25.80
2018-08-24T14:06:56.011Z,25.70
2018-08-24T14:09:24.449Z,25.60
2018-08-24T14:11:53.115Z,25.50
2018-08-24T14:14:21.728Z,25.50
2018-08-24T14:16:50.305Z,25.50
2018-08-24T14:19:18.894Z,25.50
2018-08-24T14:21:47.279Z,25.60
2018-08-24T14:24:15.711Z,25.50
2018-08-24T14:26:44.286Z,25.50
2018-08-24T14:29:12.662Z,25.30
2018-08-24T14:31:41.267Z,25.20
2018-08-24T14:34:09.685Z,25.10
2018-08-24T14:36:38.160Z,25.00
2018-08-24T14:39:08.331Z,24.80
2018-08-24T14:41:36.728Z,24.60
2018-08-24T14:44:05.425Z,24.50
2018-08-24T14:46:33.934Z,24.30
2018-08-24T14:49:02.336Z,24.40
2018-08-24T14:51:30.893Z,24.30
2018-08-24T14:53:59.308Z,24.30
2018-08-24T14:56:27.834Z,24.40
2018-08-24T14:58:56.723Z,24.30
2018-08-24T15:01:25.144Z,24.30
2018-08-24T15:03:53.686Z,24.40
2018-08-24T15:06:22.378Z,24.30
2018-08-24T15:08:50.777Z,24.40
2018-08-24T15:11:19.211Z,24.30
2018-08-24T15:13:47.691Z,24.20
2018-08-24T15:16:16.130Z,24.30
2018-08-24T15:18:44.584Z,24.30
2018-08-24T15:21:12.955Z,24.20
2018-08-24T15:23:41.391Z,24.10
2018-08-24T15:26:09.818Z,24.00
2018-08-24T15:28:38.200Z,23.90
2018-08-24T15:31:06.579Z,23.90
2018-08-24T15:33:35.023Z,23.90
2018-08-24T15:36:03.641Z,23.70
2018-08-24T15:38:31.990Z,23.80
2018-08-24T15:41:00.345Z,23.80
2018-08-24T15:43:28.985Z,23.70
2018-08-24T15:45:57.404Z,23.70
2018-08-24T15:48:25.981Z,23.60
2018-08-24T15:50:54.531Z,23.60
2018-08-24T15:53:23.036Z,23.50
2018-08-24T15:55:51.431Z,23.50
2018-08-24T15:58:19.834Z,23.40
2018-08-24T16:00:48.195Z,23.20
2018-08-24T16:03:16.584Z,23.20
2018-08-24T16:05:45.041Z,23.20
2018-08-24T16:08:13.462Z,23.00
2018-08-24T16:10:41.975Z,22.90
2018-08-24T16:13:10.366Z,22.90
2018-08-24T16:15:38.872Z,23.00
2018-08-24T16:18:12.678Z,22.90
2018-08-24T16:20:41.230Z,23.00
2018-08-24T16:23:09.580Z,22.80
2018-08-24T16:25:37.967Z,22.80
2018-08-24T16:28:06.447Z,22.80
2018-08-24T16:30:34.843Z,22.80
2018-08-24T16:33:03.288Z,22.60
2018-08-24T16:35:31.996Z,22.50
2018-08-24T16:38:00.505Z,22.40
2018-08-24T16:40:28.908Z,22.40
2018-08-24T16:42:57.336Z,22.30
2018-08-24T16:45:26.181Z,22.10
2018-08-24T16:47:54.538Z,21.90
2018-08-24T16:50:22.895Z,21.50
2018-08-24T16:52:51.322Z,21.40
2018-08-24T16:55:19.762Z,21.50
2018-08-24T16:57:49.157Z,21.50
2018-08-24T17:00:17.596Z,21.50
2018-08-24T17:02:45.976Z,21.50
2018-08-24T17:05:14.617Z,21.60
2018-08-24T17:07:43.143Z,21.70
2018-08-24T17:10:11.579Z,21.70
2018-08-24T17:12:40.050Z,21.60
2018-08-24T17:15:08.428Z,21.60
2018-08-24T17:17:36.825Z,21.70
2018-08-24T17:20:05.512Z,21.60
2018-08-24T17:22:34.100Z,21.50
2018-08-24T17:25:02.676Z,21.30
2018-08-24T17:27:31.295Z,21.30
2018-08-24T17:30:00.980Z,21.30
2018-08-24T17:32:29.519Z,21.20
2018-08-24T17:34:58.342Z,21.20
2018-08-24T17:37:26.753Z,21.10
2018-08-24T17:39:55.215Z,21.10
2018-08-24T17:42:23.626Z,21.20
2018-08-24T17:44:52.085Z,21.30
2018-08-24T17:47:20.576Z,21.30
2018-08-24T17:49:49.232Z,21.10
2018-08-24T17:52:17.714Z,21.10
2018-08-24T17:54:46.203Z,20.90
2018-08-24T17:57:14.684Z,20.80
2018-08-24T17:59:43.110Z,20.80
2018-08-24T18:02:11.519Z,21.00
2018-08-24T18:04:40.164Z,21.20
2018-08-24T18:07:08.584Z,21.10
2018-08-24T18:09:37.078Z,21.10
2018-08-24T18:12:06.083Z,21.10
2018-08-24T18:14:37.974Z,21.10
2018-08-24T18:17:06.582Z,21.10
2018-08-24T18:19:36.129Z,21.00
2018-08-24T18:22:05.025Z,21.00
2018-08-24T18:24:33.656Z,21.00
2018-08-24T18:27:02.084Z,21.20
2018-08-24T18:29:30.508Z,21.10
2018-08-24T18:31:59.132Z,21.00
2018-08-24T18:34:27.519Z,20.90
2018-08-24T18:36:56.329Z,21.00
2018-08-24T18:39:24.768Z,21.00
2018-08-24T18:41:53.182Z,21.00
2018-08-24T18:44:21.769Z,21.00
2018-08-24T18:46:50.302Z,21.20
2018-08-24T18:49:19.339Z,21.20
2018-08-24T18:51:47.750Z,21.10
2018-08-24T18:54:17.568Z,21.00
2018-08-24T18:56:46.226Z,20.90
2018-08-24T18:59:14.910Z,21.00
2018-08-24T19:01:43.803Z,21.00
2018-08-24T19:04:12.721Z,21.00
2018-08-24T19:06:41.243Z,21.00
2018-08-24T19:09:12.238Z,20.90
2018-08-24T19:11:46.192Z,20.80
2018-08-24T19:14:14.916Z,20.80
2018-08-24T19:16:43.745Z,20.80
2018-08-24T19:19:17.711Z,20.70
2018-08-24T19:21:47.839Z,20.80
2018-08-24T19:24:16.454Z,20.70
2018-08-24T19:26:44.942Z,20.70
2018-08-24T19:29:18.900Z,20.70
2018-08-24T19:31:48.106Z,20.80
2018-08-24T19:34:16.597Z,20.70
2018-08-24T19:36:45.149Z,20.60
2018-08-24T19:39:14.856Z,20.60
2018-08-24T19:41:48.733Z,20.60
2018-08-24T19:44:17.327Z,20.50
2018-08-24T19:46:46.186Z,20.40
2018-08-24T19:49:17.329Z,20.30
2018-08-24T19:51:45.850Z,20.30
2018-08-24T19:54:15.295Z,20.40
2018-08-24T19:56:43.931Z,20.40
2018-08-24T19:59:13.903Z,20.40
2018-08-24T20:01:42.540Z,20.40
2018-08-24T20:04:11.169Z,20.40
2018-08-24T20:06:44.931Z,20.40
2018-08-24T20:09:18.984Z,20.30
2018-08-24T20:11:49.740Z,20.30
2018-08-24T20:14:23.747Z,20.30
2018-08-24T20:16:57.791Z,20.20
2018-08-24T20:19:26.733Z,20.30
2018-08-24T20:21:55.246Z,20.20
2018-08-24T20:24:23.917Z,20.20
2018-08-24T20:26:52.224Z,20.20
2018-08-24T20:29:21.653Z,20.20
2018-08-24T20:31:50.574Z,20.10
2018-08-24T20:34:19.170Z,20.00
2018-08-24T20:36:47.770Z,20.00
2018-08-24T20:39:16.195Z,20.00
2018-08-24T20:41:44.747Z,20.10
2018-08-24T20:44:15.279Z,20.00
2018-08-24T20:46:44.719Z,20.00
2018-08-24T20:49:14.458Z,19.90
2018-08-24T20:51:45.936Z,19.90
2018-08-24T20:54:14.420Z,20.00
2018-08-24T20:56:43.945Z,19.90
2018-08-24T20:59:12.343Z,19.90
2018-08-24T21:01:40.807Z,19.90
2018-08-24T21:04:09.237Z,20.00
2018-08-24T21:06:37.732Z,20.00
2018-08-24T21:09:08.299Z,19.90
2018-08-24T21:11:36.755Z,20.00
2018-08-24T21:14:05.332Z,20.00
2018-08-24T21:16:33.905Z,20.00
2018-08-24T21:19:02.435Z,19.90
2018-08-24T21:21:30.962Z,20.00
2018-08-24T21:23:59.763Z,19.90
2018-08-24T21:26:28.451Z,19.90
2018-08-24T21:28:57.034Z,19.80
2018-08-24T21:31:25.517Z,19.70
2018-08-24T21:33:54.027Z,19.80
2018-08-24T21:36:22.577Z,19.90
2018-08-24T21:38:51.075Z,19.90
2018-08-24T21:41:19.512Z,19.90
2018-08-24T21:43:48.175Z,19.90
2018-08-24T21:46:16.929Z,19.90
2018-08-24T21:48:45.415Z,19.90
2018-08-24T21:51:13.842Z,19.70
2018-08-24T21:53:42.266Z,19.70
2018-08-24T21:56:10.941Z,19.60
2018-08-24T21:58:40.856Z,19.50
2018-08-24T22:06:01.599Z,19.40
2018-08-24T22:08:29.980Z,19.70
2018-08-24T22:10:58.754Z,19.70
2018-08-24T22:13:27.474Z,19.60
2018-08-24T22:15:56.136Z,19.40
2018-08-24T22:18:24.599Z,19.30
2018-08-24T22:20:53.092Z,19.40
2018-08-24T22:23:21.496Z,19.30
2018-08-24T22:25:49.896Z,19.40
2018-08-24T22:28:18.317Z,19.50
2018-08-24T22:30:46.916Z,19.60
2018-08-24T22:33:15.383Z,19.50
2018-08-24T22:35:43.747Z,19.60
2018-08-24T22:38:12.155Z,19.50
2018-08-24T22:40:40.611Z,19.50
2018-08-24T22:43:13.528Z,19.40
2018-08-24T22:45:41.919Z,19.40
2018-08-24T22:48:10.498Z,19.40
2018-08-24T22:50:39.513Z,19.40
2018-08-24T22:53:08.073Z,19.30
2018-08-24T22:55:36.544Z,19.30
2018-08-24T22:58:05.057Z,19.30
2018-08-24T23:00:33.715Z,19.40
2018-08-24T23:03:02.131Z,19.40
2018-08-24T23:05:30.467Z,19.40
2018-08-24T23:07:58.845Z,19.40
2018-08-24T23:10:27.292Z,19.40
2018-08-24T23:12:55.733Z,19.30
2018-08-24T23:15:24.167Z,19.40
2018-08-24T23:17:52.787Z,19.30
2018-08-24T23:20:21.335Z,19.40
2018-08-24T23:22:49.779Z,19.40
2018-08-24T23:25:18.224Z,19.40
2018-08-24T23:27:46.673Z,19.30
2018-08-24T23:30:15.225Z,19.20
2018-08-24T23:32:43.806Z,19.10
2018-08-24T23:35:12.458Z,19.00
2018-08-24T23:37:40.859Z,19.00
2018-08-24T23:40:09.744Z,18.80
2018-08-24T23:42:38.441Z,18.80
2018-08-24T23:45:07.043Z,18.60
2018-08-24T23:47:35.572Z,18.80
2018-08-24T23:50:04.296Z,18.90
2018-08-24T23:52:32.740Z,19.00
2018-08-24T23:55:01.107Z,19.10
2018-08-24T23:57:29.519Z,19.10
2018-08-24T23:59:57.905Z,19.10
